sensor_id;sensor_type;location;lat;lon;timestamp;P1;durP1;ratioP1;P2;durP2;ratioP2
57443;SDS011;43289;52.962;6.196;2023-04-15T00:02:15;9.40;;;4.68;;
57443;SDS011;43289;52.962;6.196;2023-04-15T00:04:45;6.97;;;3.92;;
57443;SDS011;43289;52.962;6.196;2023-04-15T00:07:11;9.98;;;4.50;;
57443;SDS011;43289;52.962;6.196;2023-04-15T00:09:37;9.50;;;4.68;;
57443;SDS011;43289;52.962;6.196;2023-04-15T00:12:03;11.65;;;5.45;;
57443;SDS011;43289;52.962;6.196;2023-04-15T00:14:29;8.93;;;4.40;;
57443;SDS011;43289;52.962;6.196;2023-04-15T00:16:55;7.85;;;4.57;;
57443;SDS011;43289;52.962;6.196;2023-04-15T00:19:21;7.65;;;4.20;;
57443;SDS011;43289;52.962;6.196;2023-04-15T00:21:48;8.80;;;4.15;;
57443;SDS011;43289;52.962;6.196;2023-04-15T00:24:14;11.30;;;5.20;;
57443;SDS011;43289;52.962;6.196;2023-04-15T00:26:45;8.70;;;4.35;;
57443;SDS011;43289;52.962;6.196;2023-04-15T00:29:11;8.90;;;5.75;;
57443;SDS011;43289;52.962;6.196;2023-04-15T00:31:43;8.63;;;4.60;;
57443;SDS011;43289;52.962;6.196;2023-04-15T00:34:09;8.60;;;5.00;;
57443;SDS011;43289;52.962;6.196;2023-04-15T00:36:36;9.80;;;4.60;;
57443;SDS011;43289;52.962;6.196;2023-04-15T00:39:01;8.15;;;4.82;;
57443;SDS011;43289;52.962;6.196;2023-04-15T00:41:36;11.07;;;5.50;;
57443;SDS011;43289;52.962;6.196;2023-04-15T00:44:05;8.40;;;4.88;;
57443;SDS011;43289;52.962;6.196;2023-04-15T00:46:31;11.50;;;5.35;;
57443;SDS011;43289;52.962;6.196;2023-04-15T00:48:59;11.63;;;6.10;;
57443;SDS011;43289;52.962;6.196;2023-04-15T00:51:25;9.65;;;4.68;;
57443;SDS011;43289;52.962;6.196;2023-04-15T00:53:51;9.63;;;5.53;;
57443;SDS011;43289;52.962;6.196;2023-04-15T00:56:16;9.65;;;5.15;;
57443;SDS011;43289;52.962;6.196;2023-04-15T00:58:44;10.45;;;5.65;;
57443;SDS011;43289;52.962;6.196;2023-04-15T01:01:10;8.20;;;5.07;;
57443;SDS011;43289;52.962;6.196;2023-04-15T01:03:35;10.65;;;5.35;;
57443;SDS011;43289;52.962;6.196;2023-04-15T01:06:01;12.93;;;5.95;;
57443;SDS011;43289;52.962;6.196;2023-04-15T01:08:27;10.00;;;5.65;;
57443;SDS011;43289;52.962;6.196;2023-04-15T01:10:55;14.15;;;5.55;;
57443;SDS011;43289;52.962;6.196;2023-04-15T01:13:22;9.50;;;5.10;;
57443;SDS011;43289;52.962;6.196;2023-04-15T01:15:49;12.73;;;5.57;;
57443;SDS011;43289;52.962;6.196;2023-04-15T01:18:15;11.85;;;5.45;;
57443;SDS011;43289;52.962;6.196;2023-04-15T01:20:42;12.43;;;5.88;;
57443;SDS011;43289;52.962;6.196;2023-04-15T01:23:07;9.35;;;5.72;;
57443;SDS011;43289;52.962;6.196;2023-04-15T01:25:34;10.05;;;5.82;;
57443;SDS011;43289;52.962;6.196;2023-04-15T01:27:59;13.15;;;6.63;;
57443;SDS011;43289;52.962;6.196;2023-04-15T01:30:26;13.45;;;6.78;;
57443;SDS011;43289;52.962;6.196;2023-04-15T01:32:52;9.18;;;5.82;;
57443;SDS011;43289;52.962;6.196;2023-04-15T01:35:18;10.43;;;6.55;;
57443;SDS011;43289;52.962;6.196;2023-04-15T01:37:44;12.80;;;5.75;;
57443;SDS011;43289;52.962;6.196;2023-04-15T01:40:10;10.82;;;6.07;;
57443;SDS011;43289;52.962;6.196;2023-04-15T01:42:36;12.40;;;6.35;;
57443;SDS011;43289;52.962;6.196;2023-04-15T01:45:02;9.73;;;5.70;;
57443;SDS011;43289;52.962;6.196;2023-04-15T01:47:28;15.43;;;6.18;;
57443;SDS011;43289;52.962;6.196;2023-04-15T01:49:53;10.60;;;6.43;;
57443;SDS011;43289;52.962;6.196;2023-04-15T01:52:19;9.88;;;6.43;;
57443;SDS011;43289;52.962;6.196;2023-04-15T01:54:45;14.07;;;6.45;;
57443;SDS011;43289;52.962;6.196;2023-04-15T01:57:11;9.00;;;6.35;;
57443;SDS011;43289;52.962;6.196;2023-04-15T01:59:41;12.48;;;6.57;;
57443;SDS011;43289;52.962;6.196;2023-04-15T02:02:07;11.77;;;7.07;;
57443;SDS011;43289;52.962;6.196;2023-04-15T02:04:32;11.90;;;6.43;;
57443;SDS011;43289;52.962;6.196;2023-04-15T02:06:58;11.55;;;7.40;;
57443;SDS011;43289;52.962;6.196;2023-04-15T02:09:24;13.77;;;7.00;;
57443;SDS011;43289;52.962;6.196;2023-04-15T02:11:50;13.05;;;7.30;;
57443;SDS011;43289;52.962;6.196;2023-04-15T02:14:25;11.30;;;6.85;;
57443;SDS011;43289;52.962;6.196;2023-04-15T02:16:51;13.23;;;6.68;;
57443;SDS011;43289;52.962;6.196;2023-04-15T02:19:17;14.18;;;8.07;;
57443;SDS011;43289;52.962;6.196;2023-04-15T02:21:42;12.85;;;7.40;;
57443;SDS011;43289;52.962;6.196;2023-04-15T02:24:08;13.18;;;8.25;;
57443;SDS011;43289;52.962;6.196;2023-04-15T02:26:33;12.30;;;7.15;;
57443;SDS011;43289;52.962;6.196;2023-04-15T02:29:12;12.80;;;7.15;;
57443;SDS011;43289;52.962;6.196;2023-04-15T02:31:38;12.65;;;6.70;;
57443;SDS011;43289;52.962;6.196;2023-04-15T02:34:05;11.32;;;7.22;;
57443;SDS011;43289;52.962;6.196;2023-04-15T02:36:33;11.90;;;6.80;;
57443;SDS011;43289;52.962;6.196;2023-04-15T02:38:59;13.32;;;6.90;;
57443;SDS011;43289;52.962;6.196;2023-04-15T02:41:24;12.68;;;7.00;;
57443;SDS011;43289;52.962;6.196;2023-04-15T02:43:52;14.05;;;7.20;;
57443;SDS011;43289;52.962;6.196;2023-04-15T02:46:18;12.55;;;7.55;;
57443;SDS011;43289;52.962;6.196;2023-04-15T02:48:43;12.88;;;7.40;;
57443;SDS011;43289;52.962;6.196;2023-04-15T02:51:19;15.38;;;7.85;;
57443;SDS011;43289;52.962;6.196;2023-04-15T02:53:46;12.45;;;8.05;;
57443;SDS011;43289;52.962;6.196;2023-04-15T02:56:13;13.68;;;7.55;;
57443;SDS011;43289;52.962;6.196;2023-04-15T02:58:40;13.93;;;8.15;;
57443;SDS011;43289;52.962;6.196;2023-04-15T03:01:06;12.38;;;8.15;;
57443;SDS011;43289;52.962;6.196;2023-04-15T03:03:32;14.98;;;7.90;;
57443;SDS011;43289;52.962;6.196;2023-04-15T03:05:58;13.98;;;7.88;;
57443;SDS011;43289;52.962;6.196;2023-04-15T03:08:24;14.25;;;8.23;;
57443;SDS011;43289;52.962;6.196;2023-04-15T03:10:50;13.13;;;8.52;;
57443;SDS011;43289;52.962;6.196;2023-04-15T03:13:17;12.55;;;8.80;;
57443;SDS011;43289;52.962;6.196;2023-04-15T03:15:45;12.93;;;7.97;;
57443;SDS011;43289;52.962;6.196;2023-04-15T03:18:10;13.35;;;9.20;;
57443;SDS011;43289;52.962;6.196;2023-04-15T03:20:40;18.85;;;8.32;;
57443;SDS011;43289;52.962;6.196;2023-04-15T03:23:06;13.77;;;8.15;;
57443;SDS011;43289;52.962;6.196;2023-04-15T03:25:31;13.48;;;9.68;;
57443;SDS011;43289;52.962;6.196;2023-04-15T03:27:57;13.20;;;9.05;;
57443;SDS011;43289;52.962;6.196;2023-04-15T03:30:23;14.40;;;10.00;;
57443;SDS011;43289;52.962;6.196;2023-04-15T03:32:49;14.70;;;9.32;;
57443;SDS011;43289;52.962;6.196;2023-04-15T03:35:15;15.57;;;9.07;;
57443;SDS011;43289;52.962;6.196;2023-04-15T03:37:41;16.00;;;10.57;;
57443;SDS011;43289;52.962;6.196;2023-04-15T03:40:06;17.08;;;10.05;;
57443;SDS011;43289;52.962;6.196;2023-04-15T03:42:33;15.82;;;10.35;;
57443;SDS011;43289;52.962;6.196;2023-04-15T03:44:59;16.27;;;10.70;;
57443;SDS011;43289;52.962;6.196;2023-04-15T03:47:25;15.68;;;10.82;;
57443;SDS011;43289;52.962;6.196;2023-04-15T03:49:50;14.00;;;9.98;;
57443;SDS011;43289;52.962;6.196;2023-04-15T03:52:16;16.15;;;10.85;;
57443;SDS011;43289;52.962;6.196;2023-04-15T03:54:41;19.00;;;10.93;;
57443;SDS011;43289;52.962;6.196;2023-04-15T03:57:07;15.68;;;10.02;;
57443;SDS011;43289;52.962;6.196;2023-04-15T03:59:32;22.80;;;11.45;;
57443;SDS011;43289;52.962;6.196;2023-04-15T04:01:58;19.75;;;10.93;;
57443;SDS011;43289;52.962;6.196;2023-04-15T04:04:23;18.10;;;11.20;;
57443;SDS011;43289;52.962;6.196;2023-04-15T04:06:49;19.73;;;12.15;;
57443;SDS011;43289;52.962;6.196;2023-04-15T04:09:27;17.90;;;10.70;;
57443;SDS011;43289;52.962;6.196;2023-04-15T04:11:52;16.45;;;10.45;;
57443;SDS011;43289;52.962;6.196;2023-04-15T04:14:18;17.23;;;11.57;;
57443;SDS011;43289;52.962;6.196;2023-04-15T04:16:43;16.55;;;11.13;;
57443;SDS011;43289;52.962;6.196;2023-04-15T04:22:21;18.08;;;10.13;;
57443;SDS011;43289;52.962;6.196;2023-04-15T04:24:48;19.33;;;11.63;;
57443;SDS011;43289;52.962;6.196;2023-04-15T04:27:14;20.40;;;11.15;;
57443;SDS011;43289;52.962;6.196;2023-04-15T04:29:40;16.38;;;11.10;;
57443;SDS011;43289;52.962;6.196;2023-04-15T04:32:05;15.95;;;10.35;;
57443;SDS011;43289;52.962;6.196;2023-04-15T04:34:31;16.98;;;10.48;;
57443;SDS011;43289;52.962;6.196;2023-04-15T04:36:56;18.63;;;11.48;;
57443;SDS011;43289;52.962;6.196;2023-04-15T04:39:22;17.13;;;10.13;;
57443;SDS011;43289;52.962;6.196;2023-04-15T04:42:01;17.80;;;10.43;;
57443;SDS011;43289;52.962;6.196;2023-04-15T04:44:26;17.70;;;11.75;;
57443;SDS011;43289;52.962;6.196;2023-04-15T04:46:59;18.95;;;11.77;;
57443;SDS011;43289;52.962;6.196;2023-04-15T04:49:25;21.05;;;12.15;;
57443;SDS011;43289;52.962;6.196;2023-04-15T04:51:50;16.80;;;11.50;;
57443;SDS011;43289;52.962;6.196;2023-04-15T04:54:26;18.50;;;10.80;;
57443;SDS011;43289;52.962;6.196;2023-04-15T04:56:52;17.85;;;11.48;;
57443;SDS011;43289;52.962;6.196;2023-04-15T04:59:17;17.98;;;11.15;;
57443;SDS011;43289;52.962;6.196;2023-04-15T05:01:43;17.67;;;10.23;;
57443;SDS011;43289;52.962;6.196;2023-04-15T05:04:09;17.02;;;10.77;;
57443;SDS011;43289;52.962;6.196;2023-04-15T05:06:34;17.88;;;11.13;;
57443;SDS011;43289;52.962;6.196;2023-04-15T05:09:07;20.20;;;11.95;;
57443;SDS011;43289;52.962;6.196;2023-04-15T05:11:32;18.13;;;11.80;;
57443;SDS011;43289;52.962;6.196;2023-04-15T05:13:58;18.25;;;11.57;;
57443;SDS011;43289;52.962;6.196;2023-04-15T05:16:25;18.33;;;10.70;;
57443;SDS011;43289;52.962;6.196;2023-04-15T05:18:51;17.52;;;11.65;;
57443;SDS011;43289;52.962;6.196;2023-04-15T05:21:16;20.65;;;12.15;;
57443;SDS011;43289;52.962;6.196;2023-04-15T05:23:42;18.35;;;11.52;;
57443;SDS011;43289;52.962;6.196;2023-04-15T05:26:08;17.05;;;11.95;;
57443;SDS011;43289;52.962;6.196;2023-04-15T05:28:33;18.92;;;11.85;;
57443;SDS011;43289;52.962;6.196;2023-04-15T05:30:59;19.63;;;12.23;;
57443;SDS011;43289;52.962;6.196;2023-04-15T05:33:25;23.35;;;12.35;;
57443;SDS011;43289;52.962;6.196;2023-04-15T05:35:51;23.85;;;12.27;;
57443;SDS011;43289;52.962;6.196;2023-04-15T05:38:17;18.45;;;12.70;;
57443;SDS011;43289;52.962;6.196;2023-04-15T05:40:42;22.60;;;12.80;;
57443;SDS011;43289;52.962;6.196;2023-04-15T05:43:08;22.52;;;14.73;;
57443;SDS011;43289;52.962;6.196;2023-04-15T05:45:34;20.27;;;12.55;;
57443;SDS011;43289;52.962;6.196;2023-04-15T05:47:59;22.48;;;13.73;;
57443;SDS011;43289;52.962;6.196;2023-04-15T05:50:25;18.70;;;12.55;;
57443;SDS011;43289;52.962;6.196;2023-04-15T05:52:50;19.38;;;11.82;;
57443;SDS011;43289;52.962;6.196;2023-04-15T05:55:16;19.02;;;11.55;;
57443;SDS011;43289;52.962;6.196;2023-04-15T05:57:49;18.98;;;12.23;;
57443;SDS011;43289;52.962;6.196;2023-04-15T06:00:14;17.63;;;11.13;;
57443;SDS011;43289;52.962;6.196;2023-04-15T06:02:40;15.52;;;10.65;;
57443;SDS011;43289;52.962;6.196;2023-04-15T06:05:06;19.23;;;11.77;;
57443;SDS011;43289;52.962;6.196;2023-04-15T06:07:36;16.33;;;11.25;;
57443;SDS011;43289;52.962;6.196;2023-04-15T06:10:02;17.65;;;11.60;;
57443;SDS011;43289;52.962;6.196;2023-04-15T06:12:28;16.10;;;11.38;;
57443;SDS011;43289;52.962;6.196;2023-04-15T06:14:55;17.60;;;10.90;;
57443;SDS011;43289;52.962;6.196;2023-04-15T06:17:20;17.02;;;10.27;;
57443;SDS011;43289;52.962;6.196;2023-04-15T06:19:46;15.77;;;11.10;;
57443;SDS011;43289;52.962;6.196;2023-04-15T06:22:14;15.30;;;11.10;;
57443;SDS011;43289;52.962;6.196;2023-04-15T06:24:40;13.90;;;9.65;;
57443;SDS011;43289;52.962;6.196;2023-04-15T06:27:06;14.20;;;9.98;;
57443;SDS011;43289;52.962;6.196;2023-04-15T06:29:32;15.27;;;10.65;;
57443;SDS011;43289;52.962;6.196;2023-04-15T06:31:58;17.50;;;10.70;;
57443;SDS011;43289;52.962;6.196;2023-04-15T06:34:24;16.27;;;11.07;;
57443;SDS011;43289;52.962;6.196;2023-04-15T06:36:51;16.92;;;10.95;;
57443;SDS011;43289;52.962;6.196;2023-04-15T06:39:18;15.93;;;10.48;;
57443;SDS011;43289;52.962;6.196;2023-04-15T06:41:44;15.27;;;10.70;;
57443;SDS011;43289;52.962;6.196;2023-04-15T06:44:10;15.35;;;10.48;;
57443;SDS011;43289;52.962;6.196;2023-04-15T06:46:36;18.40;;;11.63;;
57443;SDS011;43289;52.962;6.196;2023-04-15T06:49:05;15.60;;;11.48;;
57443;SDS011;43289;52.962;6.196;2023-04-15T06:51:31;16.20;;;11.18;;
57443;SDS011;43289;52.962;6.196;2023-04-15T06:54:02;16.55;;;12.27;;
57443;SDS011;43289;52.962;6.196;2023-04-15T06:56:30;17.55;;;11.93;;
57443;SDS011;43289;52.962;6.196;2023-04-15T06:58:56;16.55;;;11.57;;
57443;SDS011;43289;52.962;6.196;2023-04-15T07:01:23;17.83;;;11.57;;
57443;SDS011;43289;52.962;6.196;2023-04-15T07:03:50;17.45;;;11.65;;
57443;SDS011;43289;52.962;6.196;2023-04-15T07:06:16;19.17;;;12.32;;
57443;SDS011;43289;52.962;6.196;2023-04-15T07:08:42;15.55;;;11.18;;
57443;SDS011;43289;52.962;6.196;2023-04-15T07:11:08;16.20;;;10.98;;
57443;SDS011;43289;52.962;6.196;2023-04-15T07:13:34;15.25;;;10.60;;
57443;SDS011;43289;52.962;6.196;2023-04-15T07:16:01;15.00;;;9.57;;
57443;SDS011;43289;52.962;6.196;2023-04-15T07:18:26;14.23;;;9.05;;
57443;SDS011;43289;52.962;6.196;2023-04-15T07:20:52;15.30;;;10.85;;
57443;SDS011;43289;52.962;6.196;2023-04-15T07:23:18;15.73;;;10.10;;
57443;SDS011;43289;52.962;6.196;2023-04-15T07:25:45;14.30;;;9.80;;
57443;SDS011;43289;52.962;6.196;2023-04-15T07:28:11;17.20;;;10.30;;
57443;SDS011;43289;52.962;6.196;2023-04-15T07:30:37;13.02;;;9.55;;
57443;SDS011;43289;52.962;6.196;2023-04-15T07:33:03;14.82;;;9.75;;
57443;SDS011;43289;52.962;6.196;2023-04-15T07:35:29;13.50;;;8.90;;
57443;SDS011;43289;52.962;6.196;2023-04-15T07:37:55;14.60;;;9.02;;
57443;SDS011;43289;52.962;6.196;2023-04-15T07:40:21;12.90;;;8.65;;
57443;SDS011;43289;52.962;6.196;2023-04-15T07:42:47;10.55;;;8.25;;
57443;SDS011;43289;52.962;6.196;2023-04-15T07:45:14;10.65;;;6.90;;
57443;SDS011;43289;52.962;6.196;2023-04-15T07:47:40;13.27;;;7.55;;
57443;SDS011;43289;52.962;6.196;2023-04-15T07:50:13;11.38;;;6.97;;
57443;SDS011;43289;52.962;6.196;2023-04-15T07:52:40;9.63;;;6.93;;
57443;SDS011;43289;52.962;6.196;2023-04-15T07:55:06;10.05;;;6.38;;
57443;SDS011;43289;52.962;6.196;2023-04-15T07:57:33;12.02;;;7.60;;
57443;SDS011;43289;52.962;6.196;2023-04-15T07:59:59;9.50;;;6.05;;
57443;SDS011;43289;52.962;6.196;2023-04-15T08:02:26;8.75;;;6.07;;
57443;SDS011;43289;52.962;6.196;2023-04-15T08:04:52;8.70;;;5.05;;
57443;SDS011;43289;52.962;6.196;2023-04-15T08:07:18;10.25;;;5.75;;
57443;SDS011;43289;52.962;6.196;2023-04-15T08:09:45;6.30;;;3.35;;
57443;SDS011;43289;52.962;6.196;2023-04-15T08:12:11;7.25;;;3.83;;
57443;SDS011;43289;52.962;6.196;2023-04-15T08:14:38;6.93;;;4.18;;
57443;SDS011;43289;52.962;6.196;2023-04-15T08:17:04;4.53;;;2.75;;
57443;SDS011;43289;52.962;6.196;2023-04-15T08:19:30;6.10;;;3.13;;
57443;SDS011;43289;52.962;6.196;2023-04-15T08:21:59;6.72;;;3.78;;
57443;SDS011;43289;52.962;6.196;2023-04-15T08:24:25;4.75;;;2.92;;
57443;SDS011;43289;52.962;6.196;2023-04-15T08:26:51;5.47;;;4.07;;
57443;SDS011;43289;52.962;6.196;2023-04-15T08:29:17;6.30;;;3.80;;
57443;SDS011;43289;52.962;6.196;2023-04-15T08:31:43;6.55;;;3.03;;
57443;SDS011;43289;52.962;6.196;2023-04-15T08:34:10;6.75;;;3.80;;
57443;SDS011;43289;52.962;6.196;2023-04-15T08:36:36;5.55;;;4.07;;
57443;SDS011;43289;52.962;6.196;2023-04-15T08:39:02;6.30;;;4.07;;
57443;SDS011;43289;52.962;6.196;2023-04-15T08:41:32;7.82;;;4.65;;
57443;SDS011;43289;52.962;6.196;2023-04-15T08:44:03;7.47;;;3.90;;
57443;SDS011;43289;52.962;6.196;2023-04-15T08:46:30;9.00;;;5.25;;
57443;SDS011;43289;52.962;6.196;2023-04-15T08:48:56;6.75;;;3.72;;
57443;SDS011;43289;52.962;6.196;2023-04-15T08:51:23;12.00;;;4.68;;
57443;SDS011;43289;52.962;6.196;2023-04-15T08:53:49;8.05;;;4.50;;
57443;SDS011;43289;52.962;6.196;2023-04-15T08:56:16;6.55;;;3.90;;
57443;SDS011;43289;52.962;6.196;2023-04-15T08:58:43;6.60;;;3.53;;
57443;SDS011;43289;52.962;6.196;2023-04-15T09:01:12;9.73;;;4.97;;
57443;SDS011;43289;52.962;6.196;2023-04-15T09:03:39;4.85;;;2.72;;
57443;SDS011;43289;52.962;6.196;2023-04-15T09:06:05;6.40;;;3.22;;
57443;SDS011;43289;52.962;6.196;2023-04-15T09:08:32;6.95;;;2.85;;
57443;SDS011;43289;52.962;6.196;2023-04-15T09:11:00;8.75;;;3.80;;
57443;SDS011;43289;52.962;6.196;2023-04-15T09:13:26;6.07;;;3.08;;
57443;SDS011;43289;52.962;6.196;2023-04-15T09:15:52;4.68;;;3.00;;
57443;SDS011;43289;52.962;6.196;2023-04-15T09:18:32;6.35;;;3.00;;
57443;SDS011;43289;52.962;6.196;2023-04-15T09:21:12;6.38;;;2.92;;
57443;SDS011;43289;52.962;6.196;2023-04-15T09:23:39;7.55;;;3.60;;
57443;SDS011;43289;52.962;6.196;2023-04-15T09:26:05;5.68;;;2.88;;
57443;SDS011;43289;52.962;6.196;2023-04-15T09:28:32;5.50;;;2.97;;
57443;SDS011;43289;52.962;6.196;2023-04-15T09:31:00;6.20;;;2.75;;
57443;SDS011;43289;52.962;6.196;2023-04-15T09:33:27;6.95;;;3.47;;
57443;SDS011;43289;52.962;6.196;2023-04-15T09:36:00;6.47;;;3.20;;
57443;SDS011;43289;52.962;6.196;2023-04-15T09:38:27;6.25;;;3.45;;
57443;SDS011;43289;52.962;6.196;2023-04-15T09:40:53;9.10;;;4.22;;
57443;SDS011;43289;52.962;6.196;2023-04-15T09:43:20;7.45;;;3.70;;
57443;SDS011;43289;52.962;6.196;2023-04-15T09:45:47;6.20;;;3.03;;
57443;SDS011;43289;52.962;6.196;2023-04-15T09:48:23;4.15;;;2.45;;
57443;SDS011;43289;52.962;6.196;2023-04-15T09:50:51;5.78;;;2.47;;
57443;SDS011;43289;52.962;6.196;2023-04-15T09:53:18;5.43;;;2.20;;
57443;SDS011;43289;52.962;6.196;2023-04-15T09:55:48;5.20;;;2.30;;
57443;SDS011;43289;52.962;6.196;2023-04-15T09:58:19;6.28;;;3.22;;
57443;SDS011;43289;52.962;6.196;2023-04-15T10:00:49;4.90;;;2.50;;
57443;SDS011;43289;52.962;6.196;2023-04-15T10:03:17;6.05;;;3.00;;
57443;SDS011;43289;52.962;6.196;2023-04-15T10:05:44;3.92;;;1.95;;
57443;SDS011;43289;52.962;6.196;2023-04-15T10:08:11;3.13;;;1.80;;
57443;SDS011;43289;52.962;6.196;2023-04-15T10:10:37;3.78;;;2.17;;
57443;SDS011;43289;52.962;6.196;2023-04-15T10:13:04;3.33;;;1.77;;
57443;SDS011;43289;52.962;6.196;2023-04-15T10:15:31;3.67;;;1.90;;
57443;SDS011;43289;52.962;6.196;2023-04-15T10:17:57;7.25;;;1.98;;
57443;SDS011;43289;52.962;6.196;2023-04-15T10:20:25;4.30;;;1.08;;
57443;SDS011;43289;52.962;6.196;2023-04-15T10:22:52;3.15;;;1.42;;
57443;SDS011;43289;52.962;6.196;2023-04-15T10:25:18;3.65;;;1.50;;
57443;SDS011;43289;52.962;6.196;2023-04-15T10:27:44;2.50;;;1.50;;
57443;SDS011;43289;52.962;6.196;2023-04-15T10:30:12;2.17;;;1.23;;
57443;SDS011;43289;52.962;6.196;2023-04-15T10:32:38;2.17;;;1.10;;
57443;SDS011;43289;52.962;6.196;2023-04-15T10:35:05;2.72;;;1.00;;
57443;SDS011;43289;52.962;6.196;2023-04-15T10:37:32;3.38;;;1.60;;
57443;SDS011;43289;52.962;6.196;2023-04-15T10:39:59;4.85;;;1.80;;
57443;SDS011;43289;52.962;6.196;2023-04-15T10:42:26;3.00;;;1.42;;
57443;SDS011;43289;52.962;6.196;2023-04-15T10:44:58;3.55;;;1.60;;
57443;SDS011;43289;52.962;6.196;2023-04-15T10:47:24;5.45;;;2.22;;
57443;SDS011;43289;52.962;6.196;2023-04-15T10:49:51;2.92;;;1.67;;
57443;SDS011;43289;52.962;6.196;2023-04-15T10:52:21;3.75;;;1.50;;
57443;SDS011;43289;52.962;6.196;2023-04-15T10:54:48;4.43;;;1.55;;
57443;SDS011;43289;52.962;6.196;2023-04-15T11:05:10;3.53;;;1.33;;
57443;SDS011;43289;52.962;6.196;2023-04-15T11:10:03;2.13;;;1.23;;
57443;SDS011;43289;52.962;6.196;2023-04-15T11:12:50;3.08;;;1.55;;
57443;SDS011;43289;52.962;6.196;2023-04-15T11:15:35;2.13;;;1.27;;
57443;SDS011;43289;52.962;6.196;2023-04-15T11:20:34;3.55;;;1.50;;
57443;SDS011;43289;52.962;6.196;2023-04-15T11:23:00;3.45;;;1.77;;
57443;SDS011;43289;52.962;6.196;2023-04-15T11:25:27;2.85;;;1.30;;
57443;SDS011;43289;52.962;6.196;2023-04-15T11:27:53;3.28;;;1.20;;
57443;SDS011;43289;52.962;6.196;2023-04-15T11:30:24;1.30;;;1.13;;
57443;SDS011;43289;52.962;6.196;2023-04-15T11:32:50;4.68;;;1.50;;
57443;SDS011;43289;52.962;6.196;2023-04-15T11:35:17;2.53;;;1.50;;
57443;SDS011;43289;52.962;6.196;2023-04-15T11:37:47;2.42;;;1.45;;
57443;SDS011;43289;52.962;6.196;2023-04-15T11:40:19;4.57;;;2.35;;
57443;SDS011;43289;52.962;6.196;2023-04-15T11:43:02;4.65;;;2.40;;
57443;SDS011;43289;52.962;6.196;2023-04-15T11:45:29;3.05;;;1.50;;
57443;SDS011;43289;52.962;6.196;2023-04-15T11:48:03;4.38;;;1.80;;
57443;SDS011;43289;52.962;6.196;2023-04-15T11:50:29;4.13;;;2.00;;
57443;SDS011;43289;52.962;6.196;2023-04-15T11:52:57;4.63;;;2.03;;
57443;SDS011;43289;52.962;6.196;2023-04-15T11:55:23;5.38;;;2.00;;
57443;SDS011;43289;52.962;6.196;2023-04-15T11:58:04;4.47;;;2.60;;
57443;SDS011;43289;52.962;6.196;2023-04-15T12:00:56;4.97;;;1.88;;
57443;SDS011;43289;52.962;6.196;2023-04-15T12:13:57;6.10;;;2.45;;
57443;SDS011;43289;52.962;6.196;2023-04-15T12:16:27;5.22;;;2.60;;
57443;SDS011;43289;52.962;6.196;2023-04-15T12:18:57;6.03;;;2.28;;
57443;SDS011;43289;52.962;6.196;2023-04-15T12:21:25;5.57;;;2.00;;
57443;SDS011;43289;52.962;6.196;2023-04-15T12:23:52;8.75;;;2.65;;
57443;SDS011;43289;52.962;6.196;2023-04-15T12:26:24;5.18;;;2.50;;
57443;SDS011;43289;52.962;6.196;2023-04-15T12:28:54;3.75;;;1.67;;
57443;SDS011;43289;52.962;6.196;2023-04-15T12:31:21;3.78;;;1.70;;
57443;SDS011;43289;52.962;6.196;2023-04-15T12:33:47;4.90;;;1.70;;
57443;SDS011;43289;52.962;6.196;2023-04-15T12:36:14;3.20;;;2.20;;
57443;SDS011;43289;52.962;6.196;2023-04-15T12:38:40;4.38;;;1.85;;
57443;SDS011;43289;52.962;6.196;2023-04-15T12:41:06;5.43;;;2.03;;
57443;SDS011;43289;52.962;6.196;2023-04-15T12:43:32;5.97;;;1.80;;
57443;SDS011;43289;52.962;6.196;2023-04-15T12:45:58;6.63;;;1.73;;
57443;SDS011;43289;52.962;6.196;2023-04-15T12:48:24;4.20;;;1.98;;
57443;SDS011;43289;52.962;6.196;2023-04-15T12:50:50;6.28;;;1.48;;
57443;SDS011;43289;52.962;6.196;2023-04-15T12:53:16;2.53;;;1.45;;
57443;SDS011;43289;52.962;6.196;2023-04-15T12:55:42;3.17;;;1.60;;
57443;SDS011;43289;52.962;6.196;2023-04-15T12:58:08;4.55;;;1.65;;
57443;SDS011;43289;52.962;6.196;2023-04-15T13:00:35;4.40;;;1.83;;
57443;SDS011;43289;52.962;6.196;2023-04-15T13:03:01;8.13;;;2.67;;
57443;SDS011;43289;52.962;6.196;2023-04-15T13:05:28;4.57;;;1.98;;
57443;SDS011;43289;52.962;6.196;2023-04-15T13:07:53;6.95;;;2.10;;
57443;SDS011;43289;52.962;6.196;2023-04-15T13:10:19;5.65;;;1.92;;
57443;SDS011;43289;52.962;6.196;2023-04-15T13:12:47;8.25;;;2.50;;
57443;SDS011;43289;52.962;6.196;2023-04-15T13:15:16;7.72;;;1.85;;
57443;SDS011;43289;52.962;6.196;2023-04-15T13:17:44;4.28;;;1.77;;
57443;SDS011;43289;52.962;6.196;2023-04-15T13:20:10;3.42;;;1.20;;
57443;SDS011;43289;52.962;6.196;2023-04-15T13:22:36;6.47;;;1.75;;
57443;SDS011;43289;52.962;6.196;2023-04-15T13:25:19;5.13;;;1.88;;
57443;SDS011;43289;52.962;6.196;2023-04-15T13:27:44;5.40;;;1.63;;
57443;SDS011;43289;52.962;6.196;2023-04-15T13:30:10;4.60;;;1.55;;
57443;SDS011;43289;52.962;6.196;2023-04-15T13:32:37;6.97;;;1.73;;
57443;SDS011;43289;52.962;6.196;2023-04-15T13:35:02;14.05;;;2.85;;
57443;SDS011;43289;52.962;6.196;2023-04-15T13:37:29;7.22;;;1.92;;
57443;SDS011;43289;52.962;6.196;2023-04-15T13:39:55;5.38;;;1.75;;
57443;SDS011;43289;52.962;6.196;2023-04-15T13:42:23;6.22;;;1.48;;
57443;SDS011;43289;52.962;6.196;2023-04-15T13:44:49;4.70;;;1.70;;
57443;SDS011;43289;52.962;6.196;2023-04-15T13:47:16;6.90;;;1.70;;
57443;SDS011;43289;52.962;6.196;2023-04-15T13:49:47;4.70;;;1.70;;
57443;SDS011;43289;52.962;6.196;2023-04-15T13:52:12;5.93;;;1.70;;
57443;SDS011;43289;52.962;6.196;2023-04-15T13:54:38;3.35;;;1.27;;
57443;SDS011;43289;52.962;6.196;2023-04-15T13:57:04;3.65;;;1.83;;
57443;SDS011;43289;52.962;6.196;2023-04-15T13:59:32;6.63;;;1.70;;
57443;SDS011;43289;52.962;6.196;2023-04-15T14:01:58;4.55;;;1.48;;
57443;SDS011;43289;52.962;6.196;2023-04-15T14:04:24;5.75;;;1.40;;
57443;SDS011;43289;52.962;6.196;2023-04-15T14:06:51;7.63;;;1.55;;
57443;SDS011;43289;52.962;6.196;2023-04-15T14:09:16;7.75;;;2.33;;
57443;SDS011;43289;52.962;6.196;2023-04-15T14:11:42;7.78;;;2.33;;
57443;SDS011;43289;52.962;6.196;2023-04-15T14:14:07;8.23;;;1.98;;
57443;SDS011;43289;52.962;6.196;2023-04-15T14:16:33;11.38;;;2.28;;
57443;SDS011;43289;52.962;6.196;2023-04-15T14:19:00;6.70;;;2.13;;
57443;SDS011;43289;52.962;6.196;2023-04-15T14:21:29;4.03;;;1.48;;
57443;SDS011;43289;52.962;6.196;2023-04-15T14:24:11;7.65;;;2.15;;
57443;SDS011;43289;52.962;6.196;2023-04-15T14:27:27;5.70;;;1.63;;
57443;SDS011;43289;52.962;6.196;2023-04-15T15:08:50;7.45;;;1.90;;
57443;SDS011;43289;52.962;6.196;2023-04-15T15:11:15;10.10;;;2.10;;
57443;SDS011;43289;52.962;6.196;2023-04-15T15:13:41;5.38;;;2.25;;
57443;SDS011;43289;52.962;6.196;2023-04-15T15:16:10;7.50;;;1.73;;
57443;SDS011;43289;52.962;6.196;2023-04-15T15:18:35;6.18;;;2.22;;
57443;SDS011;43289;52.962;6.196;2023-04-15T15:21:02;7.40;;;1.98;;
57443;SDS011;43289;52.962;6.196;2023-04-15T15:23:28;3.25;;;2.05;;
57443;SDS011;43289;52.962;6.196;2023-04-15T15:25:53;10.00;;;2.42;;
57443;SDS011;43289;52.962;6.196;2023-04-15T15:31:09;7.25;;;2.35;;
57443;SDS011;43289;52.962;6.196;2023-04-15T15:33:41;7.82;;;2.25;;
57443;SDS011;43289;52.962;6.196;2023-04-15T15:36:09;7.35;;;2.03;;
57443;SDS011;43289;52.962;6.196;2023-04-15T15:41:40;9.40;;;3.10;;
57443;SDS011;43289;52.962;6.196;2023-04-15T15:44:20;8.38;;;2.35;;
57443;SDS011;43289;52.962;6.196;2023-04-15T15:46:46;6.90;;;1.77;;
57443;SDS011;43289;52.962;6.196;2023-04-15T15:49:12;10.82;;;3.13;;
57443;SDS011;43289;52.962;6.196;2023-04-15T15:52:13;7.55;;;2.08;;